Time;durP1;ratioP1;P1;durP2;ratioP2;P2;SDS_P1;SDS_P2;PMS_P1;PMS_P2;Temp;Humidity;BMP_temperature;BMP_pressure;BME280_temperature;BME280_humidity;BME280_pressure;Samples;Min_cycle;Max_cycle;Signal;HPM_P1;HPM_P2
2023/08/29 00:00:29;;;;;;;2.05;0.77;;;21.80;73.50;;;;;;5090599;28;20092;-62
2023/08/29 00:02:54;;;;;;;2.17;0.82;;;21.80;73.50;;;;;;5092294;28;20055;-62
2023/08/29 00:05:20;;;;;;;2.45;0.70;;;21.80;73.50;;;;;;5092676;28;20036;-63
2023/08/29 00:07:46;;;;;;;1.80;0.50;;;21.80;73.50;;;;;;5091550;28;20105;-63
2023/08/29 00:10:11;;;;;;;1.75;0.70;;;21.80;73.50;;;;;;5091711;28;20044;-63
2023/08/29 00:12:37;;;;;;;1.67;0.90;;;21.80;73.40;;;;;;5092613;28;20047;-63
2023/08/29 00:15:04;;;;;;;1.50;0.70;;;21.80;73.40;;;;;;5091024;28;20036;-63
2023/08/29 00:17:30;;;;;;;1.27;0.60;;;21.70;73.40;;;;;;5112325;28;20040;-63
2023/08/29 00:19:56;;;;;;;1.48;0.70;;;21.80;73.40;;;;;;5112634;28;20050;-62
2023/08/29 00:22:21;;;;;;;1.88;0.77;;;21.70;73.40;;;;;;5110644;28;20039;-63
2023/08/29 00:24:48;;;;;;;1.67;0.70;;;21.70;74.00;;;;;;5110695;28;20040;-63
2023/08/29 00:27:14;;;;;;;1.92;0.70;;;21.70;73.30;;;;;;5112928;28;20131;-63
2023/08/29 00:29:42;;;;;;;2.28;0.70;;;21.70;73.30;;;;;;5110746;28;20040;-61
2023/08/29 00:32:07;;;;;;;1.52;0.73;;;21.70;73.30;;;;;;5113038;28;20036;-62
2023/08/29 00:34:33;;;;;;;1.38;0.73;;;21.70;73.30;;;;;;5111916;28;20042;-63
2023/08/29 00:36:58;;;;;;;0.77;0.50;;;21.70;73.30;;;;;;5094371;28;20047;-63
2023/08/29 00:39:24;;;;;;;1.45;0.70;;;21.70;73.30;;;;;;5111209;28;20544;-63
2023/08/29 00:41:51;;;;;;;1.23;0.52;;;21.70;73.30;;;;;;5111783;28;20044;-63
2023/08/29 00:44:16;;;;;;;1.35;0.70;;;21.70;73.30;;;;;;5112207;28;20071;-63
2023/08/29 00:46:42;;;;;;;1.67;0.70;;;21.70;73.30;;;;;;5110884;28;20518;-63
2023/08/29 00:49:08;;;;;;;1.38;0.60;;;21.70;73.20;;;;;;5110250;28;20032;-63
2023/08/29 00:51:33;;;;;;;1.13;0.60;;;21.70;73.20;;;;;;5113211;28;20040;-64
2023/08/29 00:54:00;;;;;;;2.13;0.52;;;21.60;73.10;;;;;;5116369;28;20039;-63
2023/08/29 00:56:26;;;;;;;1.08;0.60;;;21.60;73.20;;;;;;5114664;28;20039;-63
2023/08/29 00:58:52;;;;;;;0.90;0.52;;;21.60;73.10;;;;;;5114435;28;20055;-63
2023/08/29 01:01:18;;;;;;;1.10;0.60;;;21.60;73.10;;;;;;5097658;28;20063;-63
2023/08/29 01:03:44;;;;;;;2.50;0.77;;;21.60;73.10;;;;;;5115507;28;20394;-63
2023/08/29 01:06:10;;;;;;;1.25;0.75;;;21.60;73.10;;;;;;5114758;28;20043;-63
2023/08/29 01:08:35;;;;;;;2.22;0.60;;;21.60;73.00;;;;;;5114910;28;20044;-63
2023/08/29 01:11:07;;;;;;;0.98;0.50;;;21.60;73.10;;;;;;5114020;28;20058;-63
2023/08/29 01:13:41;;;;;;;1.20;0.52;;;21.60;73.00;;;;;;5114886;28;20128;-63
2023/08/29 01:16:08;;;;;;;1.10;0.55;;;21.60;73.00;;;;;;5114520;28;20458;-63
2023/08/29 01:18:34;;;;;;;2.03;0.60;;;21.60;73.00;;;;;;5097226;28;20044;-63
2023/08/29 01:21:03;;;;;;;2.25;0.70;;;21.60;73.00;;;;;;5088641;28;20043;-63
2023/08/29 01:23:33;;;;;;;1.80;0.68;;;21.60;73.00;;;;;;5114568;28;20054;-63
2023/08/29 01:26:14;;;;;;;1.65;0.77;;;21.60;73.00;;;;;;5113809;28;20040;-63
2023/08/29 01:28:44;;;;;;;0.98;0.50;;;21.60;73.00;;;;;;5095170;28;20072;-63
2023/08/29 01:31:09;;;;;;;1.58;0.52;;;21.60;73.00;;;;;;5094836;28;20036;-63
2023/08/29 01:33:35;;;;;;;2.05;0.80;;;21.60;73.00;;;;;;5093630;28;20044;-63
2023/08/29 01:36:00;;;;;;;1.05;0.70;;;21.60;72.90;;;;;;5094250;28;20131;-63
2023/08/29 01:38:26;;;;;;;1.38;0.60;;;21.60;72.90;;;;;;5094308;28;20498;-63
2023/08/29 01:40:52;;;;;;;1.63;0.50;;;21.50;72.90;;;;;;5094981;28;20127;-63
2023/08/29 01:43:17;;;;;;;2.53;0.80;;;21.60;72.90;;;;;;5095416;28;20044;-61
2023/08/29 01:45:43;;;;;;;1.35;0.70;;;21.50;72.80;;;;;;5093663;28;20048;-61
2023/08/29 01:48:10;;;;;;;1.00;0.60;;;21.50;72.90;;;;;;5095285;28;20036;-61
2023/08/29 01:50:36;;;;;;;1.15;0.55;;;21.50;72.80;;;;;;5094466;28;20048;-61
2023/08/29 01:53:02;;;;;;;1.15;0.50;;;21.50;72.90;;;;;;5111537;28;20047;-63
2023/08/29 01:55:27;;;;;;;1.33;0.60;;;21.50;72.80;;;;;;5115489;28;20463;-64
2023/08/29 01:57:53;;;;;;;0.90;0.60;;;21.50;72.80;;;;;;5113933;28;20632;-63
2023/08/29 02:00:20;;;;;;;1.67;0.50;;;21.50;72.80;;;;;;5096235;28;20436;-62
2023/08/29 02:02:45;;;;;;;1.45;0.60;;;21.50;72.90;;;;;;5111991;28;20099;-64
2023/08/29 02:05:11;;;;;;;1.40;0.70;;;21.50;72.80;;;;;;5113148;28;20074;-63
2023/08/29 02:07:36;;;;;;;0.70;0.50;;;21.50;72.80;;;;;;5111088;28;20051;-63
2023/08/29 02:10:02;;;;;;;0.90;0.40;;;21.50;72.80;;;;;;5113625;28;20044;-63
2023/08/29 02:12:28;;;;;;;1.33;0.60;;;21.50;72.80;;;;;;5115036;28;20039;-63
2023/08/29 02:14:53;;;;;;;0.82;0.50;;;21.50;72.80;;;;;;5113659;28;20509;-63
2023/08/29 02:17:19;;;;;;;1.05;0.60;;;21.50;72.80;;;;;;5114763;28;20079;-63
2023/08/29 02:19:45;;;;;;;1.02;0.50;;;21.50;72.80;;;;;;5114297;28;20570;-63
2023/08/29 02:22:11;;;;;;;0.90;0.60;;;21.50;72.80;;;;;;5114077;28;20045;-63
2023/08/29 02:24:37;;;;;;;1.15;0.60;;;21.50;72.80;;;;;;5113222;28;20467;-63
2023/08/29 02:27:04;;;;;;;1.13;0.50;;;21.50;72.70;;;;;;5114068;28;20040;-62
2023/08/29 02:29:29;;;;;;;0.70;0.40;;;21.50;72.70;;;;;;5114514;28;20051;-63
2023/08/29 02:31:55;;;;;;;0.80;0.40;;;21.50;72.80;;;;;;5114519;28;20039;-63
2023/08/29 02:34:20;;;;;;;0.93;0.60;;;21.50;72.70;;;;;;5114006;28;20028;-63
2023/08/29 02:36:46;;;;;;;0.70;0.40;;;21.40;72.70;;;;;;5113512;28;20418;-63
2023/08/29 02:39:12;;;;;;;0.75;0.50;;;21.50;72.70;;;;;;5113221;28;20104;-63
2023/08/29 02:41:37;;;;;;;0.82;0.40;;;21.40;72.60;;;;;;5113748;28;20035;-63
2023/08/29 02:44:03;;;;;;;1.10;0.57;;;21.40;72.60;;;;;;5114326;28;20040;-63
2023/08/29 02:46:29;;;;;;;1.75;0.60;;;21.40;72.60;;;;;;5113044;28;20062;-63
2023/08/29 02:48:54;;;;;;;1.80;0.55;;;21.40;72.60;;;;;;5113153;28;20067;-63
2023/08/29 02:51:20;;;;;;;1.35;0.50;;;21.40;72.60;;;;;;5113614;28;20050;-63
2023/08/29 02:53:46;;;;;;;0.80;0.50;;;21.40;72.60;;;;;;5113614;28;20044;-63
2023/08/29 02:56:11;;;;;;;0.82;0.40;;;21.40;72.60;;;;;;5112034;28;20046;-63
2023/08/29 02:58:37;;;;;;;1.35;0.50;;;21.40;72.50;;;;;;5112469;28;20122;-63
2023/08/29 03:01:06;;;;;;;0.93;0.40;;;21.40;72.60;;;;;;5112562;28;20040;-63
2023/08/29 03:03:31;;;;;;;2.47;0.50;;;21.40;72.60;;;;;;5113209;28;20126;-63
2023/08/29 03:05:57;;;;;;;1.35;0.60;;;21.40;73.20;;;;;;5111631;28;20121;-63
2023/08/29 03:08:23;;;;;;;0.77;0.50;;;21.40;72.50;;;;;;5093598;28;20040;-63
2023/08/29 03:10:50;;;;;;;1.33;0.60;;;21.40;72.50;;;;;;5091107;28;20032;-63
2023/08/29 03:13:15;;;;;;;0.68;0.40;;;21.40;72.50;;;;;;5092952;28;20079;-63
2023/08/29 03:15:41;;;;;;;1.65;0.65;;;21.40;72.50;;;;;;5092647;28;20491;-63
2023/08/29 03:18:07;;;;;;;1.02;0.52;;;21.30;72.40;;;;;;5091316;28;20429;-63
2023/08/29 03:20:32;;;;;;;0.57;0.40;;;21.40;72.50;;;;;;5092888;28;20437;-63
2023/08/29 03:22:58;;;;;;;0.93;0.50;;;21.40;72.50;;;;;;5093112;28;20052;-63
2023/08/29 03:25:23;;;;;;;1.52;0.50;;;21.40;72.50;;;;;;5092415;28;20119;-63
2023/08/29 03:27:49;;;;;;;1.85;0.60;;;21.30;72.40;;;;;;5092531;28;20040;-63
2023/08/29 03:30:15;;;;;;;1.35;0.50;;;21.30;72.50;;;;;;5092513;28;20114;-63
2023/08/29 03:32:41;;;;;;;1.65;0.50;;;21.30;72.40;;;;;;5092752;28;20123;-63
2023/08/29 03:35:07;;;;;;;1.23;0.50;;;21.30;72.40;;;;;;5092831;28;20056;-63
2023/08/29 03:37:33;;;;;;;1.25;0.60;;;21.30;72.40;;;;;;5092054;28;20782;-63
2023/08/29 03:39:59;;;;;;;1.30;0.60;;;21.30;72.40;;;;;;5093134;28;20040;-63
2023/08/29 03:42:24;;;;;;;0.70;0.40;;;21.30;72.40;;;;;;5093101;28;20131;-63
2023/08/29 03:44:50;;;;;;;0.80;0.40;;;21.30;72.40;;;;;;5091321;28;20048;-63
2023/08/29 03:47:16;;;;;;;2.08;0.73;;;21.30;72.40;;;;;;5092959;28;20480;-63
2023/08/29 03:49:41;;;;;;;1.08;0.55;;;21.30;72.40;;;;;;5092473;28;20042;-63
2023/08/29 03:52:07;;;;;;;1.05;0.50;;;21.30;72.40;;;;;;5091059;28;20071;-63
2023/08/29 03:54:32;;;;;;;0.70;0.40;;;21.30;72.40;;;;;;5108471;28;20047;-63
2023/08/29 03:56:58;;;;;;;1.00;0.55;;;21.30;72.40;;;;;;5092668;28;20048;-63
2023/08/29 03:59:23;;;;;;;1.13;0.40;;;21.30;72.40;;;;;;5090388;28;20036;-63
2023/08/29 04:01:49;;;;;;;0.82;0.60;;;21.30;72.40;;;;;;5092142;28;20044;-63
2023/08/29 04:04:15;;;;;;;0.85;0.40;;;21.30;72.40;;;;;;5091196;28;20044;-63
2023/08/29 04:06:41;;;;;;;1.10;0.50;;;21.30;72.40;;;;;;5091125;28;20464;-63
2023/08/29 04:09:08;;;;;;;1.60;0.55;;;21.30;72.40;;;;;;5091622;28;20539;-63
2023/08/29 04:11:34;;;;;;;1.20;0.47;;;21.30;72.40;;;;;;5092417;28;20119;-63
2023/08/29 04:14:01;;;;;;;1.73;0.70;;;21.30;72.40;;;;;;5091818;28;20124;-63
2023/08/29 04:16:26;;;;;;;0.60;0.40;;;21.30;72.30;;;;;;5092547;28;20046;-63
2023/08/29 04:18:52;;;;;;;0.65;0.40;;;21.30;72.40;;;;;;5092413;28;20036;-63
2023/08/29 04:21:18;;;;;;;0.80;0.40;;;21.30;72.30;;;;;;5091950;28;20067;-63
2023/08/29 04:23:43;;;;;;;1.33;0.65;;;21.20;72.30;;;;;;5092538;28;20036;-63
2023/08/29 04:26:09;;;;;;;1.10;0.50;;;21.20;72.30;;;;;;5095176;28;20071;-63
2023/08/29 04:28:34;;;;;;;0.60;0.40;;;21.20;72.30;;;;;;5095691;28;20097;-63
2023/08/29 04:31:09;;;;;;;1.23;0.60;;;21.20;72.30;;;;;;5095698;28;20047;-63
2023/08/29 04:33:35;;;;;;;0.95;0.50;;;21.20;72.20;;;;;;5095436;28;20040;-63
2023/08/29 04:36:01;;;;;;;2.00;0.50;;;21.20;72.20;;;;;;5096065;28;20059;-62
2023/08/29 04:38:26;;;;;;;0.93;0.40;;;21.20;72.30;;;;;;5096331;28;20479;-63
2023/08/29 04:40:55;;;;;;;1.23;0.50;;;21.20;72.20;;;;;;5095455;28;20046;-63
2023/08/29 04:43:20;;;;;;;1.15;0.60;;;21.20;72.20;;;;;;5095274;28;20130;-62
2023/08/29 04:45:46;;;;;;;1.35;0.55;;;21.20;72.80;;;;;;5095888;28;20128;-62
2023/08/29 04:48:12;;;;;;;0.90;0.57;;;21.20;72.20;;;;;;5094245;28;20044;-63
2023/08/29 04:50:37;;;;;;;1.00;0.43;;;21.20;72.20;;;;;;5094103;28;20044;-63
2023/08/29 04:53:03;;;;;;;1.92;0.50;;;21.20;72.20;;;;;;5095764;28;20040;-63
2023/08/29 04:55:29;;;;;;;1.40;0.47;;;21.20;72.20;;;;;;5095589;28;20070;-63
2023/08/29 04:57:56;;;;;;;1.17;0.50;;;21.20;72.20;;;;;;5094102;28;20082;-63
2023/08/29 05:00:22;;;;;;;0.75;0.40;;;21.20;72.20;;;;;;5095894;28;20119;-63
2023/08/29 05:02:48;;;;;;;0.98;0.50;;;21.20;72.20;;;;;;5094406;28;20044;-63
2023/08/29 05:05:14;;;;;;;1.10;0.50;;;21.20;72.20;;;;;;5096040;28;20043;-63
2023/08/29 05:07:39;;;;;;;0.77;0.50;;;21.20;72.20;;;;;;5103201;28;20040;-63
2023/08/29 05:10:06;;;;;;;1.45;0.50;;;21.20;72.20;;;;;;5094785;28;20543;-63
2023/08/29 05:12:32;;;;;;;0.60;0.50;;;21.20;72.20;;;;;;5095620;28;20054;-63
2023/08/29 05:14:58;;;;;;;0.57;0.40;;;21.20;72.20;;;;;;5095537;28;20036;-63
2023/08/29 05:17:23;;;;;;;1.75;0.60;;;21.20;72.20;;;;;;5094782;28;20136;-63
2023/08/29 05:19:50;;;;;;;1.13;0.57;;;21.20;72.10;;;;;;5093884;28;20036;-62
2023/08/29 05:22:16;;;;;;;1.05;0.45;;;21.20;72.20;;;;;;5106855;28;20514;-63
2023/08/29 05:24:42;;;;;;;0.60;0.40;;;21.10;72.10;;;;;;5114923;27;20124;-63
2023/08/29 05:27:07;;;;;;;0.85;0.50;;;21.10;72.10;;;;;;5115813;28;20130;-62
2023/08/29 05:29:33;;;;;;;0.95;0.55;;;21.20;72.20;;;;;;5115531;28;20096;-63
2023/08/29 05:31:58;;;;;;;1.02;0.40;;;21.10;72.10;;;;;;5114713;28;20048;-63
2023/08/29 05:34:24;;;;;;;1.10;0.50;;;21.10;72.10;;;;;;5115791;28;20046;-63
2023/08/29 05:36:50;;;;;;;0.82;0.43;;;21.10;72.10;;;;;;5113479;28;20051;-62
2023/08/29 05:39:16;;;;;;;1.05;0.50;;;21.10;72.10;;;;;;5115801;28;20047;-63
2023/08/29 05:41:42;;;;;;;1.55;0.43;;;21.10;72.10;;;;;;5113896;28;20039;-63
2023/08/29 05:44:07;;;;;;;1.55;0.60;;;21.10;72.00;;;;;;5114871;28;20040;-63
2023/08/29 05:46:33;;;;;;;0.73;0.40;;;21.10;72.10;;;;;;5115621;28;20047;-63
2023/08/29 05:48:59;;;;;;;0.82;0.50;;;21.10;72.10;;;;;;5114482;28;20543;-63
2023/08/29 05:51:28;;;;;;;2.35;0.50;;;21.10;72.00;;;;;;5106203;28;20048;-63
2023/08/29 05:53:54;;;;;;;1.73;0.55;;;21.10;72.00;;;;;;5094679;28;20059;-63
2023/08/29 05:56:20;;;;;;;1.90;0.50;;;21.10;72.00;;;;;;5094563;28;20040;-63
2023/08/29 05:58:46;;;;;;;1.33;0.60;;;21.10;72.00;;;;;;5093861;28;20479;-63
2023/08/29 06:01:11;;;;;;;2.35;0.50;;;21.10;72.00;;;;;;5093127;28;20121;-64
2023/08/29 06:03:37;;;;;;;1.05;0.50;;;21.10;72.00;;;;;;5092725;28;20102;-63
2023/08/29 06:06:03;;;;;;;1.98;0.50;;;21.10;72.00;;;;;;5092297;28;20036;-63
2023/08/29 06:08:35;;;;;;;0.98;0.45;;;21.10;72.00;;;;;;5094824;28;20130;-65
2023/08/29 06:11:01;;;;;;;1.50;0.63;;;21.00;72.00;;;;;;5094992;28;20052;-63
2023/08/29 06:13:27;;;;;;;1.77;0.50;;;21.10;72.00;;;;;;5093035;28;20040;-62
2023/08/29 06:15:53;;;;;;;1.60;0.50;;;21.10;72.10;;;;;;5093012;28;20043;-61
2023/08/29 06:18:19;;;;;;;2.03;0.50;;;21.10;72.10;;;;;;5094199;28;20419;-61
2023/08/29 06:20:44;;;;;;;1.13;0.43;;;21.10;72.10;;;;;;5093100;28;20515;-62
2023/08/29 06:23:10;;;;;;;1.00;0.50;;;21.10;72.20;;;;;;5094516;28;20051;-61
2023/08/29 06:25:36;;;;;;;1.95;0.50;;;21.10;72.10;;;;;;5094024;28;20033;-61
2023/08/29 06:28:01;;;;;;;2.20;0.90;;;21.10;72.70;;;;;;5093596;28;20126;-62
2023/08/29 06:30:27;;;;;;;2.97;1.00;;;21.10;72.10;;;;;;5094106;28;20046;-62
2023/08/29 06:32:52;;;;;;;2.88;1.20;;;21.10;72.30;;;;;;5093057;28;20036;-59
2023/08/29 06:35:18;;;;;;;1.92;0.80;;;21.10;72.30;;;;;;5093101;28;20048;-62
2023/08/29 06:37:44;;;;;;;5.47;0.80;;;21.20;72.40;;;;;;5105233;28;20043;-62
2023/08/29 06:40:10;;;;;;;6.18;0.70;;;21.20;72.40;;;;;;5113617;28;20565;-62
2023/08/29 06:42:37;;;;;;;2.83;0.77;;;21.20;72.40;;;;;;5113902;28;20047;-62
2023/08/29 06:45:04;;;;;;;3.58;0.75;;;21.20;72.40;;;;;;5113964;28;20115;-62
2023/08/29 06:47:29;;;;;;;5.13;0.80;;;21.20;72.40;;;;;;5113487;28;20047;-62
2023/08/29 06:49:55;;;;;;;1.98;0.70;;;21.20;72.50;;;;;;5112508;28;20035;-62
2023/08/29 06:52:25;;;;;;;3.60;0.80;;;21.20;72.50;;;;;;5094195;28;20074;-63
2023/08/29 06:54:51;;;;;;;5.18;0.80;;;21.20;72.50;;;;;;5093043;28;20039;-62
2023/08/29 06:57:16;;;;;;;1.63;0.90;;;21.20;72.60;;;;;;5093438;28;20395;-62
2023/08/29 06:59:42;;;;;;;4.10;0.80;;;21.20;72.70;;;;;;5091905;28;20177;-63
2023/08/29 07:02:08;;;;;;;2.55;0.68;;;21.20;72.70;;;;;;5093003;28;20131;-62
2023/08/29 07:04:33;;;;;;;2.78;0.73;;;21.30;72.80;;;;;;5092473;28;20035;-62
2023/08/29 07:06:59;;;;;;;4.55;0.70;;;21.30;72.90;;;;;;5093692;28;20445;-62
2023/08/29 07:09:27;;;;;;;3.42;0.80;;;21.30;72.90;;;;;;5092867;28;20040;-62
2023/08/29 07:11:53;;;;;;;2.17;0.65;;;21.30;72.90;;;;;;5093368;28;20052;-63
2023/08/29 07:14:19;;;;;;;1.50;0.60;;;21.30;73.00;;;;;;5093381;28;20036;-62
2023/08/29 07:16:44;;;;;;;3.00;0.80;;;21.30;73.00;;;;;;5089685;28;20051;-62
2023/08/29 07:19:11;;;;;;;1.88;0.80;;;21.30;73.10;;;;;;5092870;28;20044;-62
2023/08/29 07:21:37;;;;;;;3.20;0.73;;;21.30;73.00;;;;;;5092890;28;20120;-63
2023/08/29 07:24:04;;;;;;;3.25;0.80;;;21.30;73.10;;;;;;5092315;28;20123;-62
2023/08/29 07:26:30;;;;;;;1.70;0.70;;;21.40;73.10;;;;;;5092782;28;20497;-62
2023/08/29 07:28:55;;;;;;;2.83;0.90;;;21.40;73.20;;;;;;5092703;28;20072;-62
2023/08/29 07:31:22;;;;;;;2.15;0.75;;;21.30;73.10;;;;;;5092369;28;20048;-60
2023/08/29 07:33:48;;;;;;;4.28;0.80;;;21.40;73.20;;;;;;5091445;28;20388;-62
2023/08/29 07:36:13;;;;;;;4.00;0.70;;;21.40;73.30;;;;;;5092742;28;20059;-62
2023/08/29 07:38:39;;;;;;;2.63;0.63;;;21.40;73.30;;;;;;5091111;28;20104;-63
2023/08/29 07:41:04;;;;;;;4.10;0.80;;;21.40;73.20;;;;;;5091429;28;20036;-63
2023/08/29 07:43:30;;;;;;;3.38;0.90;;;21.40;73.20;;;;;;5089544;28;20048;-62
2023/08/29 07:45:55;;;;;;;2.35;0.95;;;21.40;73.20;;;;;;5091618;28;20111;-62
2023/08/29 07:48:21;;;;;;;2.15;0.90;;;21.40;73.30;;;;;;5093118;28;20040;-63
2023/08/29 07:50:47;;;;;;;5.20;0.80;;;21.40;73.30;;;;;;5090212;28;20049;-63
2023/08/29 07:53:12;;;;;;;2.50;0.70;;;21.50;73.30;;;;;;5090143;28;20044;-60
2023/08/29 07:55:41;;;;;;;1.77;0.75;;;21.50;73.20;;;;;;5091972;28;20036;-62
2023/08/29 07:58:07;;;;;;;3.10;0.60;;;21.50;73.20;;;;;;5091722;28;20048;-62
2023/08/29 08:00:32;;;;;;;5.20;1.00;;;21.50;73.10;;;;;;5092124;28;20384;-62
2023/08/29 08:02:59;;;;;;;3.40;0.80;;;21.50;73.00;;;;;;5092000;28;20055;-62
2023/08/29 08:05:24;;;;;;;2.88;0.80;;;21.50;73.00;;;;;;5091083;28;20115;-62
2023/08/29 08:07:50;;;;;;;4.90;0.80;;;21.50;72.90;;;;;;5091974;28;20499;-61
2023/08/29 08:10:17;;;;;;;5.32;0.73;;;21.50;72.80;;;;;;5092265;28;20048;-63
2023/08/29 08:12:45;;;;;;;4.43;0.90;;;21.60;72.80;;;;;;5090328;28;20050;-62
2023/08/29 08:15:11;;;;;;;3.78;0.80;;;21.60;72.80;;;;;;5092533;28;20146;-63
2023/08/29 08:17:36;;;;;;;2.55;0.98;;;21.60;72.80;;;;;;5090803;28;20119;-63
2023/08/29 08:20:06;;;;;;;2.65;0.80;;;21.60;72.70;;;;;;5090792;28;20042;-63
2023/08/29 08:22:32;;;;;;;3.97;0.82;;;21.60;72.70;;;;;;5091255;28;20040;-62
2023/08/29 08:24:58;;;;;;;2.78;0.65;;;21.60;72.70;;;;;;5092112;28;20143;-63
2023/08/29 08:27:32;;;;;;;2.35;0.70;;;21.60;72.70;;;;;;5092000;28;20043;-62
2023/08/29 08:29:58;;;;;;;3.40;0.60;;;21.60;72.60;;;;;;5092354;28;20051;-62
2023/08/29 08:32:24;;;;;;;3.35;0.80;;;21.60;72.70;;;;;;5092644;28;20131;-62
2023/08/29 08:34:49;;;;;;;2.67;0.77;;;21.70;72.70;;;;;;5091159;28;20044;-63
2023/08/29 08:37:15;;;;;;;7.53;1.00;;;21.70;72.70;;;;;;5092445;28;20048;-62
2023/08/29 08:39:41;;;;;;;4.97;0.80;;;21.70;72.70;;;;;;5091966;28;20044;-62
2023/08/29 08:42:06;;;;;;;1.60;0.65;;;21.70;72.70;;;;;;5090815;28;20044;-62
2023/08/29 08:44:32;;;;;;;3.30;0.85;;;21.70;72.60;;;;;;5091158;28;20040;-62
2023/08/29 08:46:58;;;;;;;3.67;0.70;;;21.70;72.60;;;;;;5090062;28;20058;-62
2023/08/29 08:49:24;;;;;;;2.28;0.73;;;21.70;72.60;;;;;;5092218;28;20044;-62
2023/08/29 08:51:50;;;;;;;4.55;0.80;;;21.70;72.50;;;;;;5092180;28;20044;-62
2023/08/29 08:54:15;;;;;;;1.80;0.68;;;21.70;72.50;;;;;;5091283;28;20044;-62
2023/08/29 08:56:42;;;;;;;1.38;0.55;;;21.70;72.50;;;;;;5092082;28;20036;-62
2023/08/29 08:59:08;;;;;;;3.53;0.73;;;21.70;72.60;;;;;;5092295;28;20048;-62
2023/08/29 09:01:34;;;;;;;2.60;0.75;;;21.70;72.50;;;;;;5073265;28;20032;-62
2023/08/29 09:03:59;;;;;;;2.83;0.70;;;21.70;72.50;;;;;;5092088;28;20177;-62
2023/08/29 09:06:25;;;;;;;2.13;0.70;;;21.80;72.60;;;;;;5090729;28;20036;-62
2023/08/29 09:08:51;;;;;;;2.63;0.60;;;21.80;72.60;;;;;;5090958;28;20085;-62
2023/08/29 09:11:20;;;;;;;1.20;0.77;;;21.70;72.60;;;;;;5092546;28;20040;-62
2023/08/29 09:13:48;;;;;;;2.42;0.60;;;21.70;72.60;;;;;;5095215;28;20036;-62
2023/08/29 09:16:14;;;;;;;2.15;0.90;;;21.80;72.50;;;;;;5095116;28;20040;-62
2023/08/29 09:18:42;;;;;;;1.55;0.70;;;21.80;72.50;;;;;;5094274;28;20407;-62
2023/08/29 09:21:18;;;;;;;3.00;0.68;;;21.70;72.50;;;;;;5094229;28;20127;-62
2023/08/29 09:23:44;;;;;;;1.15;0.52;;;21.70;72.50;;;;;;5094783;28;20111;-62
2023/08/29 09:26:11;;;;;;;2.75;0.60;;;21.80;72.50;;;;;;5094479;28;20040;-62
2023/08/29 09:28:38;;;;;;;2.20;0.80;;;21.80;72.50;;;;;;5095539;28;20048;-62
2023/08/29 09:31:04;;;;;;;2.65;0.98;;;21.80;72.50;;;;;;5094493;28;20431;-62
2023/08/29 09:33:30;;;;;;;2.67;0.60;;;21.80;72.40;;;;;;5095376;28;20051;-62
2023/08/29 09:35:56;;;;;;;1.80;0.70;;;21.80;72.40;;;;;;5093464;28;20048;-62
2023/08/29 09:38:22;;;;;;;1.92;0.57;;;21.80;72.40;;;;;;5093914;28;20433;-62
2023/08/29 09:40:52;;;;;;;1.50;0.55;;;21.80;72.40;;;;;;5093915;28;20040;-62
2023/08/29 09:43:18;;;;;;;3.80;0.70;;;21.90;72.40;;;;;;5094206;28;20105;-64
2023/08/29 09:45:53;;;;;;;1.95;0.55;;;21.90;72.40;;;;;;5094119;28;20036;-62
2023/08/29 09:48:19;;;;;;;3.15;1.00;;;21.90;72.30;;;;;;5095117;28;20098;-63
2023/08/29 09:50:45;;;;;;;1.88;0.63;;;21.90;72.80;;;;;;5093470;28;20615;-62
2023/08/29 09:53:16;;;;;;;2.30;0.70;;;21.90;72.10;;;;;;5092307;28;20075;-61
2023/08/29 09:55:50;;;;;;;4.35;0.90;;;21.90;72.10;;;;;;5094310;28;20094;-62
2023/08/29 09:58:16;;;;;;;2.63;0.60;;;21.90;71.90;;;;;;5075903;28;20044;-62
2023/08/29 10:00:43;;;;;;;4.13;0.70;;;21.90;71.80;;;;;;5093772;28;20036;-63
2023/08/29 10:03:09;;;;;;;1.65;0.80;;;21.90;71.70;;;;;;5093819;28;20044;-62
2023/08/29 10:05:36;;;;;;;2.83;0.90;;;21.90;71.80;;;;;;5092487;28;20055;-62
2023/08/29 10:08:36;;;;;;;1.83;0.60;;;21.90;71.70;;;;;;5094651;28;20115;-63
2023/08/29 10:11:02;;;;;;;3.10;0.70;;;21.90;71.60;;;;;;5067169;28;20520;-63
2023/08/29 10:13:28;;;;;;;2.65;0.60;;;21.90;71.70;;;;;;5058967;28;20083;-63
2023/08/29 10:15:53;;;;;;;2.35;0.57;;;21.90;71.60;;;;;;5076045;28;20090;-62
2023/08/29 10:18:19;;;;;;;2.42;0.60;;;21.90;71.50;;;;;;5058338;28;20036;-63
2023/08/29 10:20:45;;;;;;;2.70;0.50;;;21.90;71.40;;;;;;5075945;28;20395;-62
2023/08/29 10:23:13;;;;;;;4.32;0.88;;;21.90;71.10;;;;;;5093482;28;20483;-62
2023/08/29 10:25:39;;;;;;;2.38;0.70;;;21.90;70.90;;;;;;5092979;28;20042;-61
2023/08/29 10:28:14;;;;;;;3.13;0.85;;;21.90;70.80;;;;;;5092994;28;20036;-61
2023/08/29 10:30:44;;;;;;;4.88;0.60;;;21.90;70.50;;;;;;5075606;28;20076;-62
2023/08/29 10:33:11;;;;;;;1.63;0.60;;;21.90;70.40;;;;;;5093534;28;20044;-61
2023/08/29 10:35:36;;;;;;;6.60;0.70;;;21.90;70.30;;;;;;5058646;28;20507;-61
2023/08/29 10:38:13;;;;;;;3.38;0.73;;;21.90;70.20;;;;;;5074560;28;20055;-61
2023/08/29 10:40:39;;;;;;;4.30;0.52;;;21.90;70.10;;;;;;5091701;28;20044;-61
2023/08/29 10:43:16;;;;;;;4.97;0.65;;;21.90;69.90;;;;;;5094138;28;20084;-61
2023/08/29 10:45:53;;;;;;;3.55;0.75;;;21.90;69.80;;;;;;5076823;28;20048;-61
2023/08/29 10:48:20;;;;;;;5.68;0.80;;;21.90;69.80;;;;;;5093560;28;20040;-62
2023/08/29 10:51:07;;;;;;;2.78;0.77;;;21.90;69.80;;;;;;5093657;28;20044;-61
2023/08/29 10:53:47;;;;;;;3.60;0.87;;;21.90;69.90;;;;;;5074672;28;20483;-61
2023/08/29 10:56:13;;;;;;;5.15;0.88;;;21.90;70.00;;;;;;5093909;28;20036;-61
2023/08/29 10:58:43;;;;;;;7.55;1.23;;;21.90;70.00;;;;;;5093561;28;20108;-61
2023/08/29 11:01:36;;;;;;;6.22;0.80;;;21.90;70.10;;;;;;5093009;28;20059;-61
2023/08/29 11:04:11;;;;;;;6.50;1.27;;;21.90;70.10;;;;;;5092682;28;20043;-61
2023/08/29 11:06:55;;;;;;;9.10;1.15;;;21.90;70.20;;;;;;5094622;28;20040;-61
2023/08/29 11:09:21;;;;;;;7.63;0.93;;;21.90;70.20;;;;;;5072658;28;20158;-61
2023/08/29 11:12:10;;;;;;;5.95;1.20;;;21.90;70.30;;;;;;5073051;28;20045;-61
2023/08/29 11:14:51;;;;;;;5.70;1.13;;;21.90;70.30;;;;;;5074520;28;20101;-61
2023/08/29 11:17:23;;;;;;;5.25;1.00;;;21.90;70.40;;;;;;5112706;28;20048;-61
2023/08/29 11:19:56;;;;;;;6.05;0.88;;;21.90;71.00;;;;;;5113662;28;20067;-61
2023/08/29 11:22:22;;;;;;;6.50;1.05;;;21.90;70.50;;;;;;5111571;28;20043;-61
2023/08/29 11:24:54;;;;;;;5.93;0.90;;;21.90;70.50;;;;;;5112039;28;20097;-61
2023/08/29 11:27:21;;;;;;;7.28;1.00;;;21.90;70.50;;;;;;5113608;28;20403;-61
2023/08/29 11:29:47;;;;;;;5.78;1.13;;;21.90;70.50;;;;;;5111168;28;20528;-61
2023/08/29 11:32:13;;;;;;;5.07;0.90;;;21.90;70.50;;;;;;5113664;28;20043;-61
2023/08/29 11:34:38;;;;;;;3.42;0.95;;;22.00;70.50;;;;;;5112466;28;20036;-61
2023/08/29 11:37:08;;;;;;;6.50;0.85;;;22.00;70.50;;;;;;5111121;28;20101;-61
2023/08/29 11:39:34;;;;;;;5.55;1.10;;;22.00;70.50;;;;;;5113210;28;20388;-61
2023/08/29 11:42:00;;;;;;;3.50;0.75;;;22.00;70.60;;;;;;5113623;28;20044;-61
2023/08/29 11:44:30;;;;;;;4.50;0.95;;;22.00;70.60;;;;;;5112756;28;20050;-61
2023/08/29 11:46:59;;;;;;;7.53;1.10;;;22.00;70.50;;;;;;5112894;28;20397;-61
2023/08/29 11:49:25;;;;;;;6.40;1.05;;;22.00;70.50;;;;;;5113397;28;20122;-61
2023/08/29 11:51:50;;;;;;;5.05;0.80;;;22.00;70.60;;;;;;5112276;28;20118;-61
2023/08/29 11:54:39;;;;;;;5.10;0.90;;;22.00;70.60;;;;;;5111928;28;20047;-61
2023/08/29 11:57:10;;;;;;;4.05;0.70;;;22.00;70.60;;;;;;5112584;28;20044;-61
2023/08/29 11:59:38;;;;;;;5.78;0.80;;;22.00;70.70;;;;;;5113001;28;20078;-61
2023/08/29 12:02:04;;;;;;;3.78;0.73;;;22.00;70.70;;;;;;5113428;28;20048;-61
2023/08/29 12:04:30;;;;;;;4.82;0.90;;;22.00;70.70;;;;;;5094202;28;20089;-61
2023/08/29 12:07:31;;;;;;;4.57;0.80;;;21.90;70.70;;;;;;5105677;28;20040;-61
2023/08/29 12:10:05;;;;;;;3.53;0.95;;;21.90;70.70;;;;;;5081638;28;20067;-61
2023/08/29 12:12:33;;;;;;;4.43;0.80;;;21.90;70.80;;;;;;5091141;28;20047;-62
2023/08/29 12:14:59;;;;;;;5.63;1.20;;;21.90;70.80;;;;;;5092547;28;20333;-61
2023/08/29 12:17:52;;;;;;;5.90;0.70;;;21.90;70.80;;;;;;5092644;28;20051;-61
2023/08/29 12:20:17;;;;;;;3.55;1.00;;;21.90;70.90;;;;;;5089775;28;20048;-61
2023/08/29 12:22:50;;;;;;;6.93;0.88;;;21.90;71.00;;;;;;5092221;28;20044;-61
2023/08/29 12:25:16;;;;;;;5.05;1.15;;;21.90;71.00;;;;;;5090918;28;20483;-61
2023/08/29 12:27:44;;;;;;;3.05;0.88;;;21.90;71.00;;;;;;5092511;28;20093;-61
2023/08/29 12:30:14;;;;;;;5.63;0.88;;;21.90;71.10;;;;;;5091370;28;20056;-61
2023/08/29 12:32:40;;;;;;;3.30;0.98;;;21.80;71.10;;;;;;5091348;28;20032;-61
2023/08/29 12:35:06;;;;;;;3.50;0.82;;;21.80;71.10;;;;;;5091225;28;20051;-61
2023/08/29 12:37:32;;;;;;;3.17;0.70;;;21.80;71.20;;;;;;5091337;28;20483;-61
2023/08/29 12:39:58;;;;;;;3.40;1.10;;;21.80;71.20;;;;;;5091493;28;20063;-61
2023/08/29 12:42:24;;;;;;;4.40;0.80;;;21.80;71.20;;;;;;5092692;28;20387;-62
2023/08/29 12:44:49;;;;;;;3.33;0.57;;;21.80;71.30;;;;;;5092210;28;20055;-61
2023/08/29 12:47:15;;;;;;;5.22;1.25;;;21.80;71.30;;;;;;5093486;28;20032;-61